Time;durP1;ratioP1;P1;durP2;ratioP2;P2;SDS_P1;SDS_P2;PMS_P1;PMS_P2;Temp;Humidity;BMP_temperature;BMP_pressure;BME280_temperature;BME280_humidity;BME280_pressure;Samples;Min_cycle;Max_cycle;Signal;HPM_P1;HPM_P2
2023/12/13 00:03:37;;;;;;;0.80;0.80;;;9.10;99.90;;;;;;5140946;27;20433;-80
2023/12/13 00:09:59;;;;;;;1.37;1.10;;;9.10;99.90;;;;;;5130702;27;20806;-82
2023/12/13 00:13:02;;;;;;;1.13;1.03;;;9.10;99.90;;;;;;5120659;27;20974;-82
2023/12/13 00:19:22;;;;;;;2.77;1.57;;;9.00;99.90;;;;;;5079992;28;20526;-80
2023/12/13 00:56:34;;;;;;;;;;;;;;;;;;;;;
2023/12/13 01:00:15;;;;;;;;;;;;;;;;;;;;;
2023/12/13 01:09:39;;;;;;;0.90;0.90;;;8.60;99.90;;;;;;4947472;28;20450;-81
2023/12/13 01:15:44;;;;;;;1.20;1.10;;;8.50;99.90;;;;;;5144891;27;20575;-81
2023/12/13 01:27:57;;;;;;;1.10;1.03;;;8.40;99.90;;;;;;5133382;27;20502;-82
2023/12/13 01:41:45;;;;;;;;;;;;;;;;;;;;;
2023/12/13 01:48:29;;;;;;;0.83;0.83;;;8.30;99.90;;;;;;4967948;28;20469;-81
2023/12/13 02:09:09;;;;;;;1.00;1.00;;;8.30;99.90;;;;;;4937747;29;20451;-82
2023/12/13 02:25:16;;;;;;;0.97;0.80;;;8.10;99.90;;;;;;5056550;23;20479;-82
2023/12/13 02:35:03;;;;;;;4.30;1.00;;;7.80;99.90;;;;;;4912802;29;20516;-84
2023/12/13 02:44:58;;;;;;;4.30;1.10;;;7.80;99.90;;;;;;4932439;29;20429;-84
2023/12/13 03:02:48;;;;;;;2.00;0.90;;;8.00;99.90;;;;;;4798577;29;21062;-84
2023/12/13 03:06:30;;;;;;;0.80;0.80;;;8.00;99.90;;;;;;4764287;30;20466;-83
2023/12/13 03:32:52;;;;;;;1.00;1.00;;;7.90;99.90;;;;;;4911581;29;20489;-85
2023/12/13 03:43:35;;;;;;;2.67;1.13;;;8.10;99.90;;;;;;4907044;29;21061;-83
2023/12/13 04:03:33;;;;;;;;;;;;;;;;;;;;;
2023/12/13 04:40:31;;;;;;;1.37;1.30;;;7.70;99.90;;;;;;4894202;29;20467;-84
2023/12/13 04:53:57;;;;;;;2.03;1.50;;;7.70;99.90;;;;;;4802237;29;20477;-83
2023/12/13 05:10:22;;;;;;;2.40;1.50;;;7.70;99.90;;;;;;4955044;28;20439;-84
2023/12/13 05:20:28;;;;;;;2.40;1.10;;;7.70;99.90;;;;;;4833828;29;20472;-83
2023/12/13 05:30:28;;;;;;;1.90;1.33;;;7.60;99.90;;;;;;4888449;29;20502;-83
2023/12/13 05:33:35;;;;;;;1.07;1.07;;;7.80;99.90;;;;;;4937566;29;20478;-83
2023/12/13 05:40:27;;;;;;;1.20;1.10;;;7.80;99.90;;;;;;4842060;29;20526;-83
2023/12/13 05:43:34;;;;;;;1.20;1.10;;;7.80;99.90;;;;;;4862878;29;21251;-83
2023/12/13 05:46:13;;;;;;;1.93;1.30;;;7.80;99.90;;;;;;4978569;28;20478;-82
2023/12/13 05:49:08;;;;;;;1.07;1.07;;;7.90;99.90;;;;;;5010959;28;21010;-83
2023/12/13 05:52:20;;;;;;;2.93;1.40;;;7.90;99.90;;;;;;4999646;23;20484;-82
2023/12/13 05:55:26;;;;;;;1.33;1.23;;;7.80;99.90;;;;;;4969580;28;20822;-81
2023/12/13 06:01:53;;;;;;;1.10;1.00;;;7.80;99.90;;;;;;4937563;28;20506;-82
2023/12/13 06:11:36;;;;;;;;;;;;;;;;;;;;;
2023/12/13 06:15:03;;;;;;;;;;;;;;;;;;;;;
2023/12/13 06:18:28;;;;;;;1.13;1.13;;;7.90;99.90;;;;;;5016838;28;20515;-81
2023/12/13 06:21:33;;;;;;;1.50;1.40;;;7.90;99.90;;;;;;4978215;28;20469;-82
2023/12/13 06:27:47;;;;;;;1.30;1.30;;;8.00;99.90;;;;;;4971177;28;20438;-82
2023/12/13 06:30:17;;;;;;;2.00;1.17;;;8.10;99.90;;;;;;4973600;28;20469;-81
2023/12/13 06:36:17;;;;;;;1.60;1.50;;;8.20;99.90;;;;;;4968176;28;21053;-81
2023/12/13 06:39:04;;;;;;;2.47;1.40;;;8.20;99.90;;;;;;5024997;28;20447;-80
2023/12/13 06:45:52;;;;;;;1.30;1.20;;;8.20;99.90;;;;;;5011892;28;20456;-82
2023/12/13 06:56:56;;;;;;;4.03;2.10;;;8.30;99.90;;;;;;5030498;28;20474;-83
2023/12/13 06:59:44;;;;;;;1.70;1.60;;;8.30;99.90;;;;;;5031400;28;20461;-81
2023/12/13 07:02:35;;;;;;;1.20;1.20;;;8.30;99.90;;;;;;5026053;28;20442;-84
2023/12/13 07:05:19;;;;;;;2.63;1.47;;;8.30;99.90;;;;;;5036254;28;20434;-82
2023/12/13 07:08:04;;;;;;;1.47;1.30;;;8.30;99.90;;;;;;5034771;28;20515;-81
2023/12/13 07:10:57;;;;;;;2.40;1.60;;;8.50;99.90;;;;;;5035492;28;20487;-81
2023/12/13 07:13:36;;;;;;;1.10;1.10;;;8.30;99.90;;;;;;5013563;28;20479;-82
2023/12/13 07:16:14;;;;;;;4.83;1.70;;;8.40;99.90;;;;;;5029150;28;20452;-81
2023/12/13 07:18:55;;;;;;;3.60;1.50;;;8.40;99.90;;;;;;5031441;28;20451;-80
2023/12/13 07:21:39;;;;;;;3.20;1.63;;;8.40;99.90;;;;;;5026907;28;20869;-82
2023/12/13 07:34:56;;;;;;;;;;;;;;;;;;;;;
2023/12/13 07:38:11;;;;;;;1.90;1.47;;;8.40;99.90;;;;;;4982735;28;20455;-83
2023/12/13 07:48:52;;;;;;;;;;;;;;;;;;;;;
2023/12/13 08:08:57;;;;;;;2.10;1.83;;;8.50;99.90;;;;;;4777992;29;20459;-84
2023/12/13 08:19:01;;;;;;;;;;;;;;;;;;;;;
2023/12/13 08:22:01;;;;;;;1.73;1.50;;;8.50;99.90;;;;;;4973454;28;20467;-82
2023/12/13 08:24:32;;;;;;;1.50;1.40;;;8.50;99.90;;;;;;4984960;28;20477;-81
2023/12/13 08:27:13;;;;;;;2.30;1.53;;;8.50;99.90;;;;;;4988830;28;20843;-80
2023/12/13 08:29:47;;;;;;;1.77;1.20;;;8.50;99.90;;;;;;4997330;28;20475;-81
2023/12/13 08:32:40;;;;;;;2.37;1.60;;;8.50;99.90;;;;;;5004658;28;20460;-83
2023/12/13 08:35:21;;;;;;;3.70;1.90;;;8.50;99.90;;;;;;5012741;28;20441;-81
2023/12/13 08:37:58;;;;;;;2.67;1.50;;;8.50;99.90;;;;;;5006200;28;20443;-80
2023/12/13 08:40:33;;;;;;;2.10;1.90;;;8.50;99.90;;;;;;4999665;28;20869;-81
2023/12/13 08:43:09;;;;;;;2.00;1.80;;;8.50;99.90;;;;;;5005655;28;20436;-80
2023/12/13 08:45:43;;;;;;;2.77;2.57;;;8.50;99.90;;;;;;4997378;28;20539;-81
2023/12/13 08:48:35;;;;;;;2.53;1.47;;;8.50;99.90;;;;;;4996091;28;20594;-82
2023/12/13 08:51:18;;;;;;;1.53;1.43;;;8.60;99.90;;;;;;4995968;28;20479;-80
2023/12/13 08:53:55;;;;;;;2.20;1.73;;;8.60;99.90;;;;;;5009885;28;20565;-80
2023/12/13 08:56:25;;;;;;;3.17;1.90;;;8.60;99.90;;;;;;4988688;28;20937;-80
2023/12/13 08:58:59;;;;;;;2.97;1.77;;;8.60;99.90;;;;;;5003062;28;20975;-78
2023/12/13 09:01:46;;;;;;;1.50;1.40;;;8.40;99.90;;;;;;5001186;28;20493;-81
2023/12/13 09:04:33;;;;;;;2.57;1.73;;;8.60;99.90;;;;;;4997765;28;20448;-80
2023/12/13 09:10:09;;;;;;;2.93;1.70;;;8.80;99.90;;;;;;5003257;28;20468;-81
2023/12/13 09:12:40;;;;;;;1.90;1.80;;;8.80;99.90;;;;;;4998989;28;21114;-81
2023/12/13 09:15:11;;;;;;;3.47;1.90;;;8.90;99.90;;;;;;4998206;28;20503;-82
2023/12/13 09:17:45;;;;;;;1.73;1.63;;;8.90;99.90;;;;;;5007354;28;20455;-82
2023/12/13 09:20:17;;;;;;;2.07;1.90;;;8.90;99.90;;;;;;5008946;28;20472;-80
2023/12/13 09:22:47;;;;;;;4.97;2.60;;;9.00;99.90;;;;;;5010823;28;20544;-81
2023/12/13 09:28:24;;;;;;;2.60;2.40;;;9.00;99.90;;;;;;5003737;28;20448;-79
2023/12/13 09:31:07;;;;;;;;;;;;;;;;;;;;;
2023/12/13 09:33:51;;;;;;;5.30;2.10;;;9.10;99.90;;;;;;5022246;28;20461;-82
2023/12/13 09:36:35;;;;;;;1.90;1.80;;;9.10;99.90;;;;;;5008204;28;20511;-81
2023/12/13 09:39:08;;;;;;;1.50;1.40;;;9.10;99.90;;;;;;5019663;28;20439;-81
2023/12/13 09:41:59;;;;;;;3.17;1.63;;;9.20;99.90;;;;;;5009459;28;20458;-82
2023/12/13 09:44:39;;;;;;;1.60;1.50;;;9.30;99.90;;;;;;4993392;28;20453;-81
2023/12/13 09:47:21;;;;;;;6.73;2.50;;;9.30;99.90;;;;;;5002069;28;20448;-79
2023/12/13 09:49:55;;;;;;;5.67;2.87;;;9.70;99.90;;;;;;5010592;28;20458;-80
2023/12/13 09:52:31;;;;;;;4.10;1.90;;;10.50;99.90;;;;;;4997983;28;20526;-80
2023/12/13 09:55:11;;;;;;;1.67;1.50;;;10.70;99.90;;;;;;5007678;28;20475;-82
2023/12/13 09:57:49;;;;;;;2.87;1.50;;;10.20;99.90;;;;;;5016183;28;20455;-79
2023/12/13 10:03:13;;;;;;;2.23;1.50;;;9.70;99.90;;;;;;5005348;28;20483;-79
2023/12/13 10:05:59;;;;;;;2.50;1.80;;;9.60;99.90;;;;;;5019321;28;20447;-82
2023/12/13 10:09:01;;;;;;;2.33;2.13;;;9.60;99.90;;;;;;5011660;28;20439;-82
2023/12/13 10:11:36;;;;;;;2.23;1.87;;;9.60;99.90;;;;;;5011328;28;20501;-81
2023/12/13 10:17:09;;;;;;;2.43;1.60;;;9.60;99.90;;;;;;4996926;28;20546;-81
2023/12/13 10:19:48;;;;;;;1.80;1.70;;;9.60;99.90;;;;;;4995749;28;20511;-82
2023/12/13 10:22:38;;;;;;;3.33;1.80;;;9.60;99.90;;;;;;4996159;28;20448;-81
2023/12/13 10:25:22;;;;;;;3.10;1.80;;;9.60;99.90;;;;;;5000031;28;20457;-81
2023/12/13 10:27:56;;;;;;;2.23;2.13;;;9.60;99.90;;;;;;5000785;28;20471;-82
2023/12/13 10:30:33;;;;;;;2.87;1.77;;;9.70;99.90;;;;;;4998469;28;20472;-82
2023/12/13 10:33:18;;;;;;;3.10;1.70;;;9.50;99.90;;;;;;4999463;28;20452;-82
2023/12/13 10:36:03;;;;;;;2.30;2.00;;;9.70;99.90;;;;;;4997956;28;20531;-83
2023/12/13 10:38:54;;;;;;;4.33;2.17;;;9.70;99.90;;;;;;4997748;28;20823;-82
2023/12/13 10:41:32;;;;;;;1.70;1.60;;;9.50;99.90;;;;;;4997477;28;20480;-82
2023/12/13 10:44:32;;;;;;;3.00;1.87;;;9.70;99.90;;;;;;4996239;28;20820;-83
2023/12/13 10:50:22;;;;;;;2.80;1.60;;;9.90;99.90;;;;;;4997849;28;20459;-83
2023/12/13 10:53:18;;;;;;;2.60;2.40;;;10.00;99.90;;;;;;5000110;28;20452;-82
2023/12/13 10:56:15;;;;;;;2.50;2.30;;;10.10;99.90;;;;;;5003653;28;20454;-82
2023/12/13 10:58:57;;;;;;;3.70;2.37;;;10.30;99.90;;;;;;5004837;28;20444;-82
2023/12/13 11:04:57;;;;;;;2.17;1.97;;;10.70;99.90;;;;;;4981441;28;20865;-81
2023/12/13 11:07:51;;;;;;;4.37;2.40;;;11.00;99.90;;;;;;5006003;28;20463;-83
2023/12/13 11:10:31;;;;;;;3.27;2.33;;;11.20;99.90;;;;;;5007007;28;20483;-82
2023/12/13 11:13:15;;;;;;;2.23;1.57;;;11.40;99.90;;;;;;5006911;28;20445;-82
2023/12/13 11:15:51;;;;;;;2.50;1.87;;;11.60;99.90;;;;;;5006675;28;20472;-83
2023/12/13 11:18:46;;;;;;;;;;;;;;;;;;;;;
2023/12/13 11:21:53;;;;;;;2.80;1.77;;;11.80;99.90;;;;;;5010905;28;20472;-83
2023/12/13 11:24:38;;;;;;;1.70;1.60;;;12.00;99.90;;;;;;5009515;28;20452;-83
2023/12/13 11:27:48;;;;;;;2.40;1.67;;;11.90;99.90;;;;;;5010413;28;20444;-83
2023/12/13 11:30:41;;;;;;;2.83;2.03;;;11.60;99.90;;;;;;5010320;28;20499;-81
2023/12/13 11:33:23;;;;;;;1.87;1.53;;;11.70;99.90;;;;;;5010579;28;20892;-84
2023/12/13 11:36:35;;;;;;;;;;;;;;;;;;;;;
2023/12/13 11:39:24;;;;;;;3.00;1.80;;;11.30;99.90;;;;;;4983035;28;20838;-81
2023/12/13 11:42:27;;;;;;;1.87;1.30;;;11.50;99.90;;;;;;5009863;28;21216;-82
2023/12/13 11:45:30;;;;;;;2.63;2.43;;;11.60;99.90;;;;;;5008989;28;20479;-83
2023/12/13 11:48:08;;;;;;;2.73;1.73;;;11.60;99.90;;;;;;5007852;28;20472;-81
2023/12/13 11:50:48;;;;;;;2.20;1.13;;;11.50;99.90;;;;;;5005716;28;20574;-81
2023/12/13 11:53:34;;;;;;;2.57;2.37;;;11.40;99.90;;;;;;5004676;28;20452;-82
2023/12/13 11:56:39;;;;;;;3.40;1.70;;;11.40;99.90;;;;;;5003135;28;20429;-84
2023/12/13 11:59:26;;;;;;;4.33;2.00;;;11.50;99.90;;;;;;5003281;28;20518;-81
2023/12/13 12:02:09;;;;;;;1.50;1.50;;;11.50;99.90;;;;;;5001814;28;20452;-82
2023/12/13 12:04:38;;;;;;;1.63;1.53;;;11.60;99.90;;;;;;5000265;28;20436;-81
2023/12/13 12:07:07;;;;;;;2.10;1.50;;;11.70;99.90;;;;;;5001249;28;20478;-81
2023/12/13 12:09:57;;;;;;;1.67;1.57;;;11.70;99.90;;;;;;4998896;28;20465;-82
2023/12/13 12:12:36;;;;;;;1.10;1.10;;;11.80;99.90;;;;;;5001077;28;20472;-82
2023/12/13 12:15:26;;;;;;;2.10;1.50;;;11.70;99.90;;;;;;5000037;28;20480;-82
2023/12/13 12:18:05;;;;;;;1.90;1.80;;;11.80;99.90;;;;;;5003883;28;20832;-83
2023/12/13 12:20:47;;;;;;;1.63;1.53;;;11.90;99.90;;;;;;5002742;28;20507;-83
2023/12/13 12:23:17;;;;;;;2.57;1.70;;;12.20;99.90;;;;;;5003276;28;20480;-82
2023/12/13 12:25:46;;;;;;;2.20;1.33;;;12.00;99.90;;;;;;5004814;28;20449;-80
2023/12/13 12:28:23;;;;;;;2.10;1.27;;;12.00;99.90;;;;;;5005804;28;20456;-83
2023/12/13 12:30:59;;;;;;;1.33;1.23;;;12.20;99.90;;;;;;5004966;28;20476;-81
2023/12/13 12:33:37;;;;;;;2.43;1.77;;;11.90;99.90;;;;;;5003455;28;20436;-80
2023/12/13 12:36:07;;;;;;;1.50;1.40;;;11.80;99.90;;;;;;5002668;28;20487;-81
2023/12/13 12:38:36;;;;;;;3.07;1.30;;;11.80;99.90;;;;;;5002785;28;20483;-81
2023/12/13 12:41:09;;;;;;;1.33;1.23;;;12.10;99.90;;;;;;5001478;28;20923;-82
2023/12/13 12:43:49;;;;;;;1.63;1.27;;;12.00;99.90;;;;;;5001451;28;20462;-82
2023/12/13 12:46:26;;;;;;;2.20;1.43;;;12.00;99.90;;;;;;5002940;28;20448;-82
2023/12/13 12:48:58;;;;;;;2.80;1.77;;;12.30;99.90;;;;;;5002630;28;20452;-82
2023/12/13 12:51:29;;;;;;;3.10;1.00;;;12.20;99.90;;;;;;5002393;28;20476;-80
2023/12/13 12:53:58;;;;;;;1.90;1.20;;;12.30;99.90;;;;;;5001747;28;20818;-81
2023/12/13 12:56:36;;;;;;;4.80;1.17;;;12.30;99.90;;;;;;5001844;28;20463;-82
2023/12/13 12:59:16;;;;;;;1.27;1.10;;;12.40;99.90;;;;;;5000602;28;20483;-81
2023/12/13 13:01:49;;;;;;;1.80;1.30;;;12.50;99.90;;;;;;5000110;28;20425;-82
2023/12/13 13:04:25;;;;;;;1.70;1.60;;;12.40;99.90;;;;;;4994935;28;20469;-81
2023/12/13 13:07:03;;;;;;;1.37;1.37;;;12.80;99.90;;;;;;4978531;28;20463;-82
2023/12/13 13:09:39;;;;;;;1.40;1.30;;;12.40;99.90;;;;;;4980495;28;20477;-81
2023/12/13 13:12:14;;;;;;;1.80;1.27;;;12.30;99.90;;;;;;4979978;28;20516;-82
2023/12/13 13:14:59;;;;;;;1.07;1.07;;;12.40;99.90;;;;;;4981523;28;20556;-83
2023/12/13 13:17:38;;;;;;;2.37;1.10;;;12.40;99.90;;;;;;4981172;28;20473;-83
2023/12/13 13:20:40;;;;;;;2.10;1.30;;;12.20;99.90;;;;;;4980932;28;20488;-80
2023/12/13 13:23:21;;;;;;;3.53;1.80;;;12.20;99.90;;;;;;4982773;28;20461;-83
2023/12/13 13:26:04;;;;;;;2.67;1.27;;;12.10;99.90;;;;;;4985924;28;20457;-84
2023/12/13 13:28:33;;;;;;;2.27;2.00;;;12.00;99.90;;;;;;4983710;28;20449;-83
2023/12/13 13:31:22;;;;;;;2.30;2.10;;;12.00;99.90;;;;;;4983348;28;20546;-82
2023/12/13 13:33:53;;;;;;;1.87;1.77;;;11.90;99.90;;;;;;4982417;28;20473;-82
2023/12/13 13:36:21;;;;;;;1.37;1.23;;;11.70;99.90;;;;;;4978290;28;20476;-81
2023/12/13 13:38:54;;;;;;;2.13;1.83;;;11.60;99.90;;;;;;4978411;28;20433;-83
2023/12/13 13:41:28;;;;;;;5.80;2.70;;;11.40;99.90;;;;;;4979798;28;20877;-82
2023/12/13 13:44:03;;;;;;;1.20;1.20;;;11.30;99.90;;;;;;4983657;28;20453;-82
2023/12/13 13:46:35;;;;;;;1.57;1.00;;;10.90;99.90;;;;;;4978583;28;20448;-83
2023/12/13 13:49:03;;;;;;;1.43;1.07;;;10.60;99.90;;;;;;4980058;28;20524;-81
2023/12/13 13:51:32;;;;;;;1.80;1.13;;;10.20;99.90;;;;;;4978999;28;20847;-81
2023/12/13 13:54:01;;;;;;;4.47;1.40;;;10.00;99.90;;;;;;4981569;28;20449;-78
2023/12/13 13:56:29;;;;;;;1.90;1.37;;;9.70;99.90;;;;;;4984209;28;20509;-80
2023/12/13 13:58:57;;;;;;;1.67;1.57;;;9.20;99.90;;;;;;4982375;28;20545;-80
2023/12/13 14:01:25;;;;;;;1.73;1.17;;;9.30;99.90;;;;;;4980543;28;20524;-80
2023/12/13 14:03:55;;;;;;;1.63;1.30;;;9.30;99.90;;;;;;4980717;28;20504;-80
2023/12/13 14:06:23;;;;;;;1.13;1.00;;;9.20;99.90;;;;;;5000071;28;20875;-80
2023/12/13 14:08:53;;;;;;;0.97;0.97;;;9.20;99.90;;;;;;4999046;28;20463;-78
2023/12/13 14:11:31;;;;;;;0.87;0.87;;;9.40;99.90;;;;;;5000925;28;20966;-78
2023/12/13 14:13:58;;;;;;;0.90;0.90;;;9.10;99.90;;;;;;4995651;28;20451;-79
2023/12/13 14:16:27;;;;;;;0.93;0.90;;;9.30;99.90;;;;;;4995682;28;20507;-80
2023/12/13 14:18:57;;;;;;;0.77;0.77;;;9.20;99.90;;;;;;4997605;28;20498;-78
2023/12/13 14:21:26;;;;;;;1.40;1.10;;;9.10;99.90;;;;;;4999048;28;20457;-78
2023/12/13 14:23:57;;;;;;;1.43;0.80;;;9.10;99.90;;;;;;5000835;28;20830;-79
2023/12/13 14:26:25;;;;;;;0.80;0.80;;;9.10;99.90;;;;;;4999069;28;20474;-78
2023/12/13 14:28:59;;;;;;;1.13;1.10;;;9.10;99.90;;;;;;5000571;28;20471;-79
2023/12/13 14:31:27;;;;;;;3.07;0.90;;;9.00;99.90;;;;;;5001051;28;20467;-79
2023/12/13 14:33:57;;;;;;;6.73;2.13;;;9.10;99.90;;;;;;5001042;28;20964;-81
2023/12/13 14:36:28;;;;;;;4.90;1.70;;;9.10;99.90;;;;;;5001525;28;20472;-80
2023/12/13 14:39:01;;;;;;;16.43;2.07;;;9.00;99.90;;;;;;4998231;28;20471;-80
2023/12/13 14:41:37;;;;;;;1.10;1.03;;;9.10;99.90;;;;;;4997566;28;20480;-80
2023/12/13 14:44:13;;;;;;;7.20;1.97;;;9.00;99.90;;;;;;4997933;28;20452;-79
2023/12/13 14:46:46;;;;;;;1.63;1.00;;;9.00;99.90;;;;;;5001225;28;20470;-80
2023/12/13 14:49:21;;;;;;;3.23;1.00;;;9.10;99.90;;;;;;4996509;28;20448;-79
2023/12/13 14:51:54;;;;;;;1.60;1.13;;;9.00;99.90;;;;;;4997009;28;20503;-81
2023/12/13 14:54:37;;;;;;;2.00;1.13;;;8.90;99.90;;;;;;5000541;28;20452;-81
2023/12/13 14:57:06;;;;;;;1.13;1.03;;;8.90;99.90;;;;;;5006154;28;20451;-80
2023/12/13 14:59:34;;;;;;;1.13;1.03;;;8.80;99.90;;;;;;5002373;28;20475;-80
2023/12/13 15:02:08;;;;;;;2.13;1.30;;;8.80;99.90;;;;;;5003555;28;20807;-81
2023/12/13 15:04:41;;;;;;;1.27;1.17;;;8.80;99.90;;;;;;5001621;28;20462;-81
2023/12/13 15:07:15;;;;;;;10.23;2.07;;;8.80;99.90;;;;;;5002557;28;20878;-78
2023/12/13 15:09:46;;;;;;;3.90;1.20;;;8.80;99.90;;;;;;5007981;28;20475;-80
2023/12/13 15:12:13;;;;;;;2.17;1.33;;;8.60;99.90;;;;;;5015070;28;20440;-79
2023/12/13 15:14:44;;;;;;;2.47;1.47;;;8.80;99.90;;;;;;5016644;28;20477;-83
2023/12/13 15:17:13;;;;;;;1.77;1.50;;;8.70;99.90;;;;;;5012431;28;20452;-82
2023/12/13 15:19:43;;;;;;;2.23;2.13;;;8.70;99.90;;;;;;5015666;28;20468;-81
2023/12/13 15:22:11;;;;;;;2.03;1.63;;;8.70;99.90;;;;;;5011322;28;20444;-81
2023/12/13 15:24:42;;;;;;;2.03;1.93;;;8.40;99.90;;;;;;5001048;28;20455;-80
2023/12/13 15:27:13;;;;;;;2.20;2.10;;;8.70;99.90;;;;;;4999815;28;20973;-80
2023/12/13 15:29:52;;;;;;;2.40;2.20;;;8.60;99.90;;;;;;5000038;28;20677;-79
2023/12/13 15:32:25;;;;;;;2.93;2.40;;;8.50;99.90;;;;;;4998278;28;20506;-81
2023/12/13 15:34:56;;;;;;;1.70;1.60;;;8.60;99.90;;;;;;4999829;28;20456;-80
2023/12/13 15:37:29;;;;;;;2.23;2.03;;;8.60;99.90;;;;;;4999324;28;20820;-79
2023/12/13 15:39:58;;;;;;;1.90;1.80;;;8.60;99.90;;;;;;4999408;28;20897;-80
2023/12/13 15:42:28;;;;;;;2.23;1.73;;;8.60;99.90;;;;;;4999150;28;20464;-79
2023/12/13 15:45:04;;;;;;;1.93;1.70;;;8.60;99.90;;;;;;5001141;28;20507;-81
2023/12/13 15:47:35;;;;;;;2.60;1.70;;;8.60;99.90;;;;;;5004272;28;20504;-79
2023/12/13 15:50:09;;;;;;;6.70;2.30;;;8.60;99.90;;;;;;4998994;28;20488;-79
2023/12/13 15:52:42;;;;;;;4.30;2.43;;;8.60;99.90;;;;;;4999657;28;20462;-80
2023/12/13 15:55:12;;;;;;;3.30;2.60;;;8.50;99.90;;;;;;5001537;28;20518;-80
2023/12/13 15:57:42;;;;;;;4.07;2.60;;;8.60;99.90;;;;;;5002015;28;20464;-79
2023/12/13 16:00:14;;;;;;;2.63;2.33;;;8.50;99.90;;;;;;5001982;28;20472;-81
2023/12/13 16:02:43;;;;;;;2.70;2.10;;;8.50;99.90;;;;;;5004778;28;20459;-80
2023/12/13 16:05:13;;;;;;;6.07;5.53;;;8.50;99.90;;;;;;4999537;28;20471;-80
2023/12/13 16:07:43;;;;;;;4.43;3.37;;;8.50;99.90;;;;;;4998501;28;20549;-79
2023/12/13 16:10:19;;;;;;;2.60;2.40;;;8.50;99.90;;;;;;4997847;28;20465;-78
2023/12/13 16:12:46;;;;;;;2.87;2.40;;;8.50;99.90;;;;;;5001113;28;20478;-77
2023/12/13 16:15:15;;;;;;;2.83;2.63;;;8.50;99.90;;;;;;5002450;28;20444;-79
2023/12/13 16:17:43;;;;;;;3.00;2.70;;;8.50;99.90;;;;;;4997786;28;20437;-81
2023/12/13 16:20:14;;;;;;;3.10;2.50;;;8.50;99.90;;;;;;4998454;28;21015;-81
2023/12/13 16:22:44;;;;;;;3.53;2.80;;;8.50;99.90;;;;;;4998502;28;20448;-80
2023/12/13 16:25:20;;;;;;;2.87;2.67;;;8.40;99.90;;;;;;4998129;28;20471;-79
2023/12/13 16:27:49;;;;;;;5.97;3.70;;;8.40;99.90;;;;;;4998570;28;20520;-80
2023/12/13 16:30:24;;;;;;;2.90;2.60;;;8.20;99.90;;;;;;4996864;28;20501;-78
2023/12/13 16:32:57;;;;;;;3.67;3.37;;;8.40;99.90;;;;;;4999106;28;20467;-80
2023/12/13 16:35:29;;;;;;;4.10;3.80;;;8.40;99.90;;;;;;4998489;28;20480;-81
2023/12/13 16:38:13;;;;;;;7.33;6.63;;;8.40;99.90;;;;;;5000462;28;20452;-79
2023/12/13 16:40:43;;;;;;;5.43;4.93;;;8.40;99.90;;;;;;5003178;28;20502;-79
2023/12/13 16:43:18;;;;;;;6.20;5.27;;;8.40;99.90;;;;;;5009053;28;20451;-80
2023/12/13 16:45:47;;;;;;;5.53;3.80;;;8.40;99.90;;;;;;5003724;28;20952;-79
2023/12/13 16:48:15;;;;;;;4.10;3.70;;;8.30;99.90;;;;;;5000762;28;20561;-79
2023/12/13 16:50:44;;;;;;;5.40;4.10;;;8.30;99.90;;;;;;5004514;28;20456;-80
2023/12/13 16:53:12;;;;;;;3.80;3.50;;;8.30;99.90;;;;;;5001502;28;20435;-79
2023/12/13 16:55:45;;;;;;;3.37;3.17;;;8.20;99.90;;;;;;5002484;28;20503;-80
2023/12/13 16:58:13;;;;;;;4.80;3.33;;;8.20;99.90;;;;;;5001475;28;20465;-80
2023/12/13 17:00:43;;;;;;;4.50;3.70;;;8.20;99.90;;;;;;4998057;28;20823;-81
2023/12/13 17:03:12;;;;;;;4.27;3.90;;;8.40;99.90;;;;;;4997996;28;20985;-80
2023/12/13 17:05:39;;;;;;;4.83;3.97;;;7.90;99.90;;;;;;4997156;28;20444;-80
2023/12/13 17:08:13;;;;;;;5.10;4.60;;;8.10;99.90;;;;;;4997563;28;20447;-80
2023/12/13 17:10:41;;;;;;;4.33;4.00;;;8.10;99.90;;;;;;4997524;28;20476;-80
2023/12/13 17:13:15;;;;;;;4.33;4.03;;;8.20;99.90;;;;;;4997755;28;20849;-78
2023/12/13 17:15:47;;;;;;;5.07;4.67;;;8.20;99.90;;;;;;4996817;28;20530;-81
2023/12/13 17:18:15;;;;;;;5.83;5.33;;;8.20;99.90;;;;;;4996677;28;20840;-80
2023/12/13 17:20:53;;;;;;;4.53;4.13;;;8.20;99.90;;;;;;4995702;28;20514;-80
2023/12/13 17:23:33;;;;;;;12.50;10.93;;;8.10;99.90;;;;;;4996844;28;20892;-81
2023/12/13 17:26:14;;;;;;;11.70;9.87;;;8.30;99.90;;;;;;5002306;28;20452;-80
2023/12/13 17:28:56;;;;;;;6.83;5.40;;;8.10;99.90;;;;;;5005910;28;20465;-81
2023/12/13 17:31:41;;;;;;;5.70;5.20;;;8.10;99.90;;;;;;5005481;28;20481;-80
2023/12/13 17:34:12;;;;;;;5.87;5.27;;;8.10;99.90;;;;;;5010069;28;20437;-81
2023/12/13 17:36:46;;;;;;;5.40;4.90;;;7.80;99.90;;;;;;5011095;28;20475;-81
2023/12/13 17:39:22;;;;;;;7.30;6.20;;;8.10;99.90;;;;;;5010780;28;20462;-81
2023/12/13 17:42:08;;;;;;;9.53;6.30;;;8.10;99.90;;;;;;5009579;28;20468;-81
2023/12/13 17:44:45;;;;;;;5.70;5.10;;;8.00;99.90;;;;;;5009047;28;20460;-80
2023/12/13 17:47:26;;;;;;;7.73;6.60;;;8.10;99.90;;;;;;5009076;28;20462;-81
2023/12/13 17:49:59;;;;;;;9.20;5.20;;;8.10;99.90;;;;;;5007912;28;20499;-81
2023/12/13 17:52:53;;;;;;;6.40;4.73;;;8.10;99.90;;;;;;5008640;28;20610;-81
2023/12/13 17:55:38;;;;;;;3.37;3.07;;;8.10;99.90;;;;;;5007699;28;20455;-82
2023/12/13 17:58:13;;;;;;;2.83;2.63;;;8.30;99.90;;;;;;5009476;28;20447;-82
2023/12/13 18:00:50;;;;;;;9.43;8.17;;;8.00;99.90;;;;;;5010432;28;20476;-82
2023/12/13 18:06:17;;;;;;;6.87;4.30;;;7.90;99.90;;;;;;5007090;28;20448;-80
2023/12/13 18:09:14;;;;;;;4.47;4.17;;;7.70;99.90;;;;;;5005354;28;20871;-82
2023/12/13 18:15:08;;;;;;;4.33;3.90;;;7.90;99.90;;;;;;4992701;28;20445;-82
2023/12/13 18:17:42;;;;;;;3.97;3.67;;;7.90;99.90;;;;;;5007050;28;20540;-83
2023/12/13 18:20:14;;;;;;;5.60;4.60;;;7.90;99.90;;;;;;5002702;28;20474;-82
2023/12/13 18:23:07;;;;;;;5.57;5.13;;;7.90;99.90;;;;;;5005217;28;20448;-82
2023/12/13 18:25:43;;;;;;;9.50;8.60;;;7.90;99.90;;;;;;5002062;28;20487;-81
2023/12/13 18:28:17;;;;;;;8.07;7.30;;;7.90;99.90;;;;;;5002649;28;20467;-80
2023/12/13 18:31:06;;;;;;;6.50;5.90;;;7.90;99.90;;;;;;5003931;28;20471;-81
2023/12/13 18:33:41;;;;;;;7.03;6.40;;;7.90;99.90;;;;;;5004834;28;20436;-80
2023/12/13 18:36:15;;;;;;;7.47;6.80;;;7.90;99.90;;;;;;5002880;28;20476;-84
2023/12/13 18:38:48;;;;;;;9.93;8.60;;;7.80;99.90;;;;;;5005584;28;20490;-82
2023/12/13 18:41:25;;;;;;;11.53;10.40;;;7.90;99.90;;;;;;5005719;28;20475;-82
2023/12/13 18:43:59;;;;;;;11.73;10.70;;;7.80;99.90;;;;;;5005551;28;20460;-80
2023/12/13 18:46:29;;;;;;;11.00;9.90;;;7.80;99.90;;;;;;5004817;28;20519;-82
2023/12/13 18:48:59;;;;;;;10.40;9.40;;;7.80;99.90;;;;;;5005158;28;20446;-80
2023/12/13 18:51:27;;;;;;;10.17;9.17;;;7.80;99.90;;;;;;5004843;28;20460;-81
2023/12/13 18:53:55;;;;;;;11.93;10.73;;;7.60;99.90;;;;;;5003517;28;20463;-79
2023/12/13 18:56:24;;;;;;;11.17;10.10;;;7.80;99.90;;;;;;5004388;28;20484;-81
2023/12/13 18:58:55;;;;;;;12.60;11.20;;;7.80;99.90;;;;;;5002986;28;20455;-78
2023/12/13 19:01:23;;;;;;;12.00;10.90;;;7.80;99.90;;;;;;5006711;28;20472;-82
2023/12/13 19:03:53;;;;;;;14.03;12.73;;;7.50;99.90;;;;;;5005393;28;20527;-80
2023/12/13 19:06:21;;;;;;;12.23;10.90;;;7.90;99.90;;;;;;5002898;28;20447;-82
2023/12/13 19:08:49;;;;;;;16.97;14.47;;;8.00;99.90;;;;;;5004799;28;20841;-79
2023/12/13 19:11:16;;;;;;;20.37;18.17;;;7.50;99.90;;;;;;5005006;28;20469;-79
2023/12/13 19:13:47;;;;;;;15.00;13.40;;;7.80;99.90;;;;;;5003824;28;20503;-78
2023/12/13 19:16:15;;;;;;;12.60;10.87;;;7.80;99.90;;;;;;5001732;28;20468;-81
2023/12/13 19:18:53;;;;;;;11.60;10.57;;;7.80;99.90;;;;;;5004706;28;20547;-80
2023/12/13 19:21:25;;;;;;;12.57;11.37;;;7.80;99.90;;;;;;5011591;28;20500;-81
2023/12/13 19:23:59;;;;;;;13.97;12.73;;;7.80;99.90;;;;;;5012499;28;20489;-81
2023/12/13 19:26:27;;;;;;;13.10;11.77;;;7.60;99.90;;;;;;5011552;28;20530;-83
2023/12/13 19:28:59;;;;;;;14.73;12.03;;;7.80;99.90;;;;;;5012300;28;20447;-81
2023/12/13 19:31:27;;;;;;;14.53;11.97;;;7.70;99.90;;;;;;5012256;28;20484;-83
2023/12/13 19:33:54;;;;;;;13.50;12.10;;;7.70;99.90;;;;;;5011896;28;20466;-82
2023/12/13 19:36:36;;;;;;;10.97;9.87;;;7.70;99.90;;;;;;5012140;28;20479;-82
2023/12/13 19:39:07;;;;;;;10.23;9.13;;;7.70;99.90;;;;;;5010754;28;20475;-80
2023/12/13 19:41:42;;;;;;;9.73;8.83;;;7.70;99.90;;;;;;5009204;28;20486;-80
2023/12/13 19:44:10;;;;;;;7.47;6.77;;;7.50;99.90;;;;;;5005257;28;20583;-82
2023/12/13 19:46:40;;;;;;;7.80;7.00;;;7.70;99.90;;;;;;5008570;28;20467;-81
2023/12/13 19:49:08;;;;;;;7.97;7.37;;;7.80;99.90;;;;;;5008051;28;20953;-82
2023/12/13 19:51:44;;;;;;;7.47;6.87;;;7.70;99.90;;;;;;5005232;28;20452;-81
2023/12/13 19:54:15;;;;;;;7.20;6.60;;;7.70;99.90;;;;;;5003527;28;20453;-80
2023/12/13 19:56:44;;;;;;;6.10;5.67;;;7.60;99.90;;;;;;5001204;28;20634;-79
2023/12/13 19:59:14;;;;;;;7.03;6.43;;;7.70;99.90;;;;;;5003755;28;20444;-79
2023/12/13 20:01:45;;;;;;;5.93;5.53;;;7.70;99.90;;;;;;5004578;28;20444;-81
2023/12/13 20:04:15;;;;;;;6.10;5.60;;;7.70;99.90;;;;;;5000110;28;20850;-81
2023/12/13 20:06:45;;;;;;;5.97;5.37;;;7.60;99.90;;;;;;4981234;28;20933;-80
2023/12/13 20:09:17;;;;;;;5.30;4.80;;;7.60;99.90;;;;;;4981954;28;20521;-82
2023/12/13 20:11:48;;;;;;;6.07;5.47;;;7.60;99.90;;;;;;4982103;28;20458;-81